createdAt,value
2017-09-14T00:02:03.113Z,83.80
2017-09-14T00:04:31.447Z,83.98
2017-09-14T00:06:59.780Z,83.13
2017-09-14T00:09:28.115Z,83.87
2017-09-14T00:11:56.474Z,83.74
2017-09-14T00:14:24.826Z,83.31
2017-09-14T00:16:53.186Z,82.90
2017-09-14T00:19:21.547Z,82.69
2017-09-14T00:21:49.886Z,82.55
2017-09-14T00:24:18.226Z,82.02
2017-09-14T00:26:46.563Z,80.73
2017-09-14T00:29:14.931Z,80.03
2017-09-14T00:31:43.262Z,81.01
2017-09-14T00:34:11.598Z,81.60
2017-09-14T00:36:39.976Z,81.53
2017-09-14T00:39:08.351Z,81.08
2017-09-14T00:41:36.682Z,81.56
2017-09-14T00:44:05.039Z,81.88
2017-09-14T00:46:33.388Z,81.87
2017-09-14T00:49:01.730Z,82.46
2017-09-14T00:51:30.102Z,83.53
2017-09-14T00:53:58.439Z,85.49
2017-09-14T00:56:26.879Z,86.00
2017-09-14T00:58:55.234Z,86.39
2017-09-14T01:01:23.674Z,86.99
2017-09-14T01:03:52.010Z,86.78
2017-09-14T01:06:20.346Z,87.94
2017-09-14T01:08:48.706Z,87.85
2017-09-14T01:11:17.043Z,87.58
2017-09-14T01:13:45.416Z,87.32
2017-09-14T01:16:13.758Z,87.35
2017-09-14T01:18:42.107Z,87.65
2017-09-14T01:21:10.516Z,87.63
2017-09-14T01:23:38.909Z,87.63
2017-09-14T01:26:07.291Z,87.57
2017-09-14T01:28:35.634Z,87.91
2017-09-14T01:31:04.015Z,87.80
2017-09-14T01:33:32.351Z,87.38
2017-09-14T01:36:00.686Z,86.77
2017-09-14T01:38:29.015Z,87.44
2017-09-14T01:40:57.378Z,87.15
2017-09-14T01:43:25.712Z,88.03
2017-09-14T01:45:54.043Z,87.91
2017-09-14T01:48:22.403Z,87.72
2017-09-14T01:50:50.767Z,88.11
2017-09-14T01:53:19.090Z,88.21
2017-09-14T01:55:47.423Z,87.81
2017-09-14T01:58:15.746Z,87.59
2017-09-14T02:00:44.078Z,87.54
2017-09-14T02:03:12.443Z,86.98
2017-09-14T02:05:40.775Z,87.13
2017-09-14T02:08:09.127Z,86.65
2017-09-14T02:10:37.492Z,86.43
2017-09-14T02:13:05.874Z,86.84
2017-09-14T02:15:34.206Z,85.45
2017-09-14T02:18:02.848Z,85.64
2017-09-14T02:20:31.258Z,86.28
2017-09-14T02:22:59.646Z,86.24
2017-09-14T02:25:28.004Z,85.23
2017-09-14T02:27:56.343Z,85.53
2017-09-14T02:30:24.685Z,84.88
2017-09-14T02:32:53.131Z,85.13
2017-09-14T02:35:21.509Z,85.75
2017-09-14T02:37:49.863Z,85.34
2017-09-14T02:40:18.202Z,84.58
2017-09-14T02:42:46.566Z,84.87
2017-09-14T02:45:14.971Z,84.90
2017-09-14T02:47:43.364Z,84.71
2017-09-14T02:50:11.693Z,84.70
2017-09-14T02:52:40.034Z,84.45
2017-09-14T02:55:08.561Z,84.54
2017-09-14T02:57:36.906Z,85.83
2017-09-14T03:00:05.226Z,85.28
2017-09-14T03:02:33.581Z,84.67
2017-09-14T03:05:01.923Z,84.74
2017-09-14T03:07:30.250Z,84.82
2017-09-14T03:09:58.590Z,85.23
2017-09-14T03:12:27.031Z,85.20
2017-09-14T03:14:55.367Z,85.47
2017-09-14T03:17:23.722Z,85.12
2017-09-14T03:19:52.174Z,84.55
2017-09-14T03:22:20.519Z,85.39
2017-09-14T03:24:48.849Z,84.99
2017-09-14T03:27:17.178Z,85.64
2017-09-14T03:29:45.515Z,85.62
2017-09-14T03:32:13.947Z,85.39
2017-09-14T03:34:42.286Z,85.02
2017-09-14T03:37:10.619Z,86.01
2017-09-14T03:39:38.956Z,85.12
2017-09-14T03:42:07.290Z,85.28
2017-09-14T03:44:36.035Z,85.29
2017-09-14T03:47:04.369Z,85.58
2017-09-14T03:49:32.702Z,85.43
2017-09-14T03:52:01.038Z,84.75
2017-09-14T03:54:29.378Z,84.84
2017-09-14T03:56:57.742Z,85.10
2017-09-14T03:59:26.082Z,84.95
2017-09-14T04:01:54.461Z,84.75
2017-09-14T04:04:22.795Z,84.62
2017-09-14T04:06:51.166Z,85.11
2017-09-14T04:09:19.550Z,85.06
2017-09-14T04:11:47.887Z,84.84
2017-09-14T04:14:16.335Z,84.45
2017-09-14T04:16:44.682Z,84.03
2017-09-14T04:19:13.020Z,84.38
2017-09-14T04:21:41.635Z,84.95
2017-09-14T04:24:09.971Z,84.96
2017-09-14T04:26:38.391Z,85.43
2017-09-14T04:29:06.734Z,84.23
2017-09-14T04:31:35.159Z,84.18
2017-09-14T04:34:03.506Z,84.60
2017-09-14T04:36:31.871Z,84.02
2017-09-14T04:39:00.201Z,84.50
2017-09-14T04:41:28.563Z,84.09
2017-09-14T04:43:56.922Z,84.72
2017-09-14T04:46:25.262Z,83.88
2017-09-14T04:48:53.598Z,84.01
2017-09-14T04:51:21.938Z,83.95
2017-09-14T04:53:50.319Z,83.90
2017-09-14T04:56:18.715Z,83.92
2017-09-14T04:58:47.047Z,83.97
2017-09-14T05:01:15.383Z,83.68
2017-09-14T05:03:43.724Z,83.78
2017-09-14T05:06:12.055Z,83.99
2017-09-14T05:08:40.438Z,83.46
2017-09-14T05:11:08.791Z,83.18
2017-09-14T05:13:37.130Z,83.02
2017-09-14T05:16:05.495Z,82.56
2017-09-14T05:18:33.828Z,82.69
2017-09-14T05:21:02.210Z,83.16
2017-09-14T05:23:30.546Z,83.72
2017-09-14T05:25:58.894Z,83.16
2017-09-14T05:28:27.230Z,83.47
2017-09-14T05:30:55.558Z,83.48
2017-09-14T05:33:23.898Z,83.05
2017-09-14T05:35:52.365Z,82.63
2017-09-14T05:38:20.710Z,82.43
2017-09-14T05:40:49.063Z,82.82
2017-09-14T05:43:17.387Z,82.60
2017-09-14T05:45:45.719Z,82.88
2017-09-14T05:48:14.074Z,82.88
2017-09-14T05:50:42.417Z,82.75
2017-09-14T05:53:10.778Z,82.59
2017-09-14T05:55:39.113Z,82.36
2017-09-14T05:58:07.454Z,82.40
2017-09-14T06:00:35.814Z,82.53
2017-09-14T06:03:04.150Z,81.84
2017-09-14T06:05:32.475Z,81.84
2017-09-14T06:08:00.807Z,81.84
2017-09-14T06:10:29.150Z,81.76
2017-09-14T06:12:57.474Z,81.32
2017-09-14T06:15:25.814Z,81.61
2017-09-14T06:17:54.145Z,81.73
2017-09-14T06:20:22.522Z,81.00
2017-09-14T06:22:50.863Z,81.99
2017-09-14T06:25:19.194Z,81.58
2017-09-14T06:27:47.527Z,81.62
2017-09-14T06:30:15.899Z,82.39
2017-09-14T06:32:44.246Z,81.73
2017-09-14T06:35:12.610Z,81.52
2017-09-14T06:37:40.943Z,80.70
2017-09-14T06:40:09.310Z,81.09
2017-09-14T06:42:37.663Z,81.51
2017-09-14T06:45:05.994Z,81.23
2017-09-14T06:47:34.521Z,81.21
2017-09-14T06:50:03.140Z,80.90
2017-09-14T06:52:31.502Z,81.23
2017-09-14T06:54:59.826Z,80.85
2017-09-14T06:57:28.182Z,81.03
2017-09-14T06:59:56.515Z,80.43
2017-09-14T07:02:24.843Z,80.38
2017-09-14T07:04:53.195Z,80.07
2017-09-14T07:07:21.923Z,80.04
2017-09-14T07:09:50.295Z,79.83
2017-09-14T07:12:18.622Z,79.49
2017-09-14T07:14:46.953Z,79.39
2017-09-14T07:17:15.318Z,79.43
2017-09-14T07:19:43.654Z,78.86
2017-09-14T07:22:11.994Z,78.88
2017-09-14T07:24:40.319Z,78.91
2017-09-14T07:27:08.646Z,79.49
2017-09-14T07:29:36.999Z,78.38
2017-09-14T07:32:05.331Z,79.52
2017-09-14T07:34:33.687Z,80.46
2017-09-14T07:37:02.023Z,80.95
2017-09-14T07:39:30.368Z,80.68
2017-09-14T07:41:58.706Z,80.89
2017-09-14T07:44:27.030Z,82.50
2017-09-14T07:46:55.366Z,83.49
2017-09-14T07:49:23.695Z,82.29
2017-09-14T07:51:52.066Z,83.14
2017-09-14T07:54:20.400Z,82.87
2017-09-14T07:56:48.758Z,83.84
2017-09-14T07:59:17.126Z,84.49
2017-09-14T08:01:45.517Z,85.22
2017-09-14T08:04:13.842Z,84.95
2017-09-14T08:06:42.176Z,85.42
2017-09-14T08:09:10.522Z,84.39
2017-09-14T08:11:38.852Z,84.53
2017-09-14T08:14:07.194Z,84.80
2017-09-14T08:16:35.523Z,85.81
2017-09-14T08:19:03.855Z,84.42
2017-09-14T08:21:32.191Z,84.43
2017-09-14T08:24:00.515Z,84.91
2017-09-14T08:26:29.062Z,84.69
2017-09-14T08:28:57.387Z,84.25
2017-09-14T08:31:25.747Z,85.00
2017-09-14T08:33:54.078Z,83.78
2017-09-14T08:36:22.407Z,82.98
2017-09-14T08:38:50.738Z,83.75
2017-09-14T08:41:19.081Z,83.79
2017-09-14T08:43:47.422Z,83.20
2017-09-14T08:46:15.756Z,84.81
2017-09-14T08:48:44.118Z,83.75
2017-09-14T08:51:12.442Z,84.03
2017-09-14T08:53:40.819Z,83.10
2017-09-14T08:56:09.147Z,82.45
2017-09-14T08:58:37.482Z,79.95
2017-09-14T09:01:06.614Z,80.60
2017-09-14T09:03:34.978Z,79.37
2017-09-14T09:06:03.315Z,79.57
2017-09-14T09:08:31.642Z,79.15
2017-09-14T09:11:00.040Z,79.79
2017-09-14T09:13:28.363Z,80.17
2017-09-14T09:15:56.730Z,80.06
2017-09-14T09:18:25.066Z,81.12
2017-09-14T09:20:53.399Z,80.81
2017-09-14T09:23:21.739Z,79.70
2017-09-14T09:25:50.930Z,80.69
2017-09-14T09:28:19.275Z,80.92
2017-09-14T09:30:47.623Z,80.34
2017-09-14T09:33:16.054Z,79.39
2017-09-14T09:35:44.449Z,79.82
2017-09-14T09:38:12.774Z,79.72
2017-09-14T09:40:41.118Z,80.28
2017-09-14T09:43:09.455Z,81.69
2017-09-14T09:45:37.789Z,80.68
2017-09-14T09:48:06.150Z,77.80
2017-09-14T09:50:34.498Z,78.36
2017-09-14T09:53:02.840Z,77.40
2017-09-14T09:55:31.191Z,77.36
2017-09-14T09:57:59.528Z,73.13
2017-09-14T10:00:27.874Z,66.91
2017-09-14T10:02:56.230Z,64.50
2017-09-14T10:05:24.569Z,65.60
2017-09-14T10:07:52.900Z,67.89
2017-09-14T10:10:21.227Z,69.75
2017-09-14T10:12:49.564Z,69.19
2017-09-14T10:15:17.895Z,70.37
2017-09-14T10:17:46.236Z,72.18
2017-09-14T10:20:14.568Z,72.67
2017-09-14T10:22:42.967Z,74.21
2017-09-14T10:25:11.305Z,75.98
2017-09-14T10:27:39.639Z,78.38
2017-09-14T10:30:08.000Z,78.58
2017-09-14T10:32:36.323Z,79.03
2017-09-14T10:35:04.661Z,77.55
2017-09-14T10:37:33.023Z,79.42
2017-09-14T10:40:01.355Z,79.07
2017-09-14T10:42:29.704Z,78.07
2017-09-14T10:44:58.070Z,76.95
2017-09-14T10:47:26.396Z,78.22
2017-09-14T10:49:54.723Z,79.46
2017-09-14T10:52:23.095Z,80.11
2017-09-14T10:54:51.427Z,80.96
2017-09-14T10:57:19.767Z,82.11
2017-09-14T10:59:48.127Z,81.62
2017-09-14T11:02:16.462Z,81.59
2017-09-14T11:04:44.798Z,83.04
2017-09-14T11:07:13.139Z,79.81
2017-09-14T11:09:41.483Z,70.81
2017-09-14T11:12:09.830Z,65.05
2017-09-14T11:14:38.159Z,65.45
2017-09-14T11:17:06.497Z,67.23
2017-09-14T11:19:37.474Z,65.73
2017-09-14T11:22:05.810Z,72.79
2017-09-14T11:24:34.152Z,73.40
2017-09-14T11:27:02.532Z,79.29
2017-09-14T11:29:31.118Z,77.44
2017-09-14T11:31:59.496Z,77.89
2017-09-14T11:34:28.718Z,81.13
2017-09-14T11:36:57.075Z,82.71
2017-09-14T11:39:25.411Z,84.38
2017-09-14T11:41:53.761Z,79.37
2017-09-14T11:44:22.090Z,70.14
2017-09-14T11:46:50.467Z,69.58
2017-09-14T11:49:18.835Z,72.66
2017-09-14T11:51:47.183Z,78.46
2017-09-14T11:54:15.507Z,81.20
2017-09-14T11:56:43.847Z,81.32
2017-09-14T11:59:12.288Z,82.95
2017-09-14T12:01:40.692Z,81.02
2017-09-14T12:04:09.034Z,83.30
2017-09-14T12:06:37.364Z,81.37
2017-09-14T12:09:05.697Z,81.13
2017-09-14T12:11:34.023Z,80.06
2017-09-14T12:14:02.418Z,76.21
2017-09-14T12:16:30.803Z,73.86
2017-09-14T12:18:59.163Z,75.48
2017-09-14T12:21:27.583Z,76.59
2017-09-14T12:23:55.918Z,74.66
2017-09-14T12:26:24.262Z,78.16
2017-09-14T12:28:52.603Z,76.61
2017-09-14T12:31:20.963Z,73.98
2017-09-14T12:33:49.299Z,75.67
2017-09-14T12:36:17.638Z,76.59
2017-09-14T12:38:46.008Z,77.92
2017-09-14T12:41:14.484Z,76.02
2017-09-14T12:43:42.855Z,77.37
2017-09-14T12:46:11.292Z,78.70
2017-09-14T12:48:39.983Z,77.68
2017-09-14T12:51:08.328Z,78.79
2017-09-14T12:53:36.703Z,76.82
2017-09-14T12:56:05.048Z,76.89
2017-09-14T12:58:33.425Z,78.85
2017-09-14T13:01:01.769Z,77.07
2017-09-14T13:03:30.433Z,75.00
2017-09-14T13:05:58.775Z,74.90
2017-09-14T13:08:27.125Z,73.71
2017-09-14T13:10:55.465Z,74.10
2017-09-14T13:13:23.804Z,74.96
2017-09-14T13:15:52.147Z,75.43
2017-09-14T13:18:20.531Z,75.96
2017-09-14T13:20:48.865Z,76.79
2017-09-14T13:23:17.244Z,76.01
2017-09-14T13:25:45.584Z,75.63
2017-09-14T13:28:13.960Z,75.85
2017-09-14T13:30:42.309Z,72.69
2017-09-14T13:33:10.671Z,72.30
2017-09-14T13:35:39.010Z,72.92
2017-09-14T13:38:07.690Z,72.14
2017-09-14T13:40:36.050Z,74.36
2017-09-14T13:43:04.398Z,73.19
2017-09-14T13:45:32.794Z,73.00
2017-09-14T13:48:01.140Z,73.61
2017-09-14T13:50:30.494Z,72.26
2017-09-14T13:52:58.870Z,73.56
2017-09-14T13:55:27.240Z,75.07
2017-09-14T13:57:55.628Z,74.06
2017-09-14T14:00:23.988Z,75.90
2017-09-14T14:02:52.349Z,77.51
2017-09-14T14:05:20.707Z,80.96
2017-09-14T14:07:49.079Z,83.06
2017-09-14T14:10:17.418Z,81.92
2017-09-14T14:12:45.787Z,83.04
2017-09-14T14:15:14.115Z,81.20
2017-09-14T14:17:42.483Z,81.55
2017-09-14T14:20:10.815Z,80.58
2017-09-14T14:22:39.170Z,80.78
2017-09-14T14:25:07.508Z,83.01
2017-09-14T14:27:35.827Z,81.69
2017-09-14T14:30:04.161Z,81.23
2017-09-14T14:32:32.530Z,79.45
2017-09-14T14:35:00.863Z,80.02
2017-09-14T14:37:29.231Z,78.66
2017-09-14T14:39:57.559Z,80.11
2017-09-14T14:42:25.887Z,81.01
2017-09-14T14:44:54.215Z,79.94
2017-09-14T14:47:22.539Z,79.54
2017-09-14T14:49:50.871Z,80.26
2017-09-14T14:52:19.303Z,81.01
2017-09-14T14:54:47.773Z,80.32
2017-09-14T14:57:16.142Z,80.62
2017-09-14T14:59:44.490Z,80.11
2017-09-14T15:02:12.823Z,81.15
2017-09-14T15:04:41.175Z,81.63
2017-09-14T15:07:09.500Z,81.44
2017-09-14T15:09:37.831Z,81.22
2017-09-14T15:12:06.171Z,79.82
2017-09-14T15:14:34.488Z,80.07
2017-09-14T15:17:02.962Z,80.41
2017-09-14T15:19:31.283Z,78.65
2017-09-14T15:21:59.607Z,80.01
2017-09-14T15:24:27.956Z,80.82
2017-09-14T15:26:56.287Z,80.18
2017-09-14T15:29:24.687Z,80.53
2017-09-14T15:31:53.062Z,81.17
2017-09-14T15:34:21.441Z,81.89
2017-09-14T15:36:49.767Z,81.42
2017-09-14T15:39:23.739Z,81.40
2017-09-14T15:41:52.095Z,80.87
2017-09-14T15:44:26.065Z,81.52
2017-09-14T15:46:54.389Z,80.85
2017-09-14T15:49:28.206Z,81.75
2017-09-14T15:51:56.752Z,80.11
2017-09-14T15:54:25.091Z,80.22
2017-09-14T15:56:53.479Z,81.13
2017-09-14T15:59:21.831Z,81.37
2017-09-14T16:01:50.183Z,82.44
2017-09-14T16:04:18.555Z,83.14
2017-09-14T16:06:46.879Z,83.36
2017-09-14T16:09:15.207Z,83.51
2017-09-14T16:11:43.547Z,83.61
2017-09-14T16:14:11.876Z,84.22
2017-09-14T16:16:40.202Z,84.20
2017-09-14T16:19:08.528Z,84.00
2017-09-14T16:21:36.869Z,85.03
2017-09-14T16:24:05.189Z,84.01
2017-09-14T16:26:33.524Z,84.44
2017-09-14T16:29:01.849Z,84.78
2017-09-14T16:31:30.174Z,83.93
2017-09-14T16:33:58.507Z,85.13
2017-09-14T16:36:26.835Z,83.96
2017-09-14T16:38:55.166Z,83.57
2017-09-14T16:41:23.494Z,82.96
2017-09-14T16:43:51.834Z,83.15
2017-09-14T16:46:20.155Z,83.58
2017-09-14T16:48:48.511Z,84.58
2017-09-14T16:51:16.839Z,83.94
2017-09-14T16:53:45.170Z,84.18
2017-09-14T16:56:13.551Z,84.24
2017-09-14T16:58:41.963Z,84.31
2017-09-14T17:01:10.295Z,86.07
2017-09-14T17:03:38.626Z,85.88
2017-09-14T17:06:06.963Z,85.53
2017-09-14T17:08:35.287Z,85.63
2017-09-14T17:11:03.630Z,86.98
2017-09-14T17:13:31.961Z,87.30
2017-09-14T17:16:00.318Z,87.60
2017-09-14T17:18:28.638Z,87.91
2017-09-14T17:20:56.974Z,88.00
2017-09-14T17:23:25.294Z,88.75
2017-09-14T17:25:53.620Z,89.63
2017-09-14T17:28:21.952Z,89.57
2017-09-14T17:30:50.307Z,89.87
2017-09-14T17:33:18.712Z,90.55
2017-09-14T17:35:47.043Z,89.91
2017-09-14T17:38:15.407Z,89.86
2017-09-14T17:40:43.735Z,90.57
2017-09-14T17:43:12.054Z,90.21
2017-09-14T17:45:40.375Z,89.65
2017-09-14T17:48:08.699Z,90.93
2017-09-14T17:50:37.027Z,90.79
2017-09-14T17:53:05.354Z,90.46
2017-09-14T17:55:33.672Z,90.95
2017-09-14T17:58:01.998Z,90.81
2017-09-14T18:00:30.321Z,91.39
2017-09-14T18:02:58.642Z,91.92
2017-09-14T18:05:26.993Z,91.39
2017-09-14T18:07:55.315Z,91.18
2017-09-14T18:10:23.630Z,91.26
2017-09-14T18:12:51.958Z,91.29
2017-09-14T18:15:20.282Z,91.07
2017-09-14T18:17:48.612Z,91.75
2017-09-14T18:20:17.143Z,91.64
2017-09-14T18:22:45.563Z,91.83
2017-09-14T18:25:13.882Z,92.22
2017-09-14T18:27:42.462Z,91.71
2017-09-14T18:30:10.879Z,91.31
2017-09-14T18:32:39.189Z,91.50
2017-09-14T18:35:07.510Z,90.92
2017-09-14T18:37:35.839Z,91.95
2017-09-14T18:40:04.175Z,91.19
2017-09-14T18:42:32.498Z,91.98
2017-09-14T18:45:00.864Z,91.80
2017-09-14T18:47:29.938Z,92.08
2017-09-14T18:49:58.270Z,91.99
2017-09-14T18:52:26.618Z,92.22
2017-09-14T18:54:55.253Z,92.33
2017-09-14T18:57:23.803Z,92.63
2017-09-14T18:59:52.150Z,92.33
2017-09-14T19:02:20.484Z,92.58
2017-09-14T19:04:48.802Z,92.31
2017-09-14T19:07:17.236Z,92.61
2017-09-14T19:09:45.550Z,92.06
2017-09-14T19:12:13.879Z,92.49
2017-09-14T19:14:42.563Z,92.91
2017-09-14T19:17:10.890Z,92.44
2017-09-14T19:19:39.221Z,92.60
2017-09-14T19:22:07.547Z,92.57
2017-09-14T19:24:35.873Z,92.83
2017-09-14T19:27:04.201Z,92.17
2017-09-14T19:29:32.530Z,92.99
2017-09-14T19:32:01.002Z,92.41
2017-09-14T19:34:29.326Z,92.55
2017-09-14T19:36:57.666Z,92.96
2017-09-14T19:39:25.985Z,92.77
2017-09-14T19:41:54.331Z,93.24
2017-09-14T19:44:22.690Z,93.57
2017-09-14T19:46:51.015Z,92.93
2017-09-14T19:49:19.371Z,92.70
2017-09-14T19:51:47.707Z,92.77
2017-09-14T19:54:16.030Z,93.14
2017-09-14T19:56:44.378Z,93.67
2017-09-14T19:59:12.707Z,93.08
2017-09-14T20:01:41.029Z,93.06
2017-09-14T20:04:09.354Z,92.93
2017-09-14T20:06:37.709Z,92.91
2017-09-14T20:09:06.035Z,92.83
2017-09-14T20:11:34.362Z,92.75
2017-09-14T20:14:02.818Z,93.26
2017-09-14T20:16:31.159Z,92.66
2017-09-14T20:18:59.531Z,93.08
2017-09-14T20:21:27.848Z,92.68
2017-09-14T20:23:56.183Z,92.45
2017-09-14T20:26:24.806Z,92.77
2017-09-14T20:28:53.130Z,93.50
2017-09-14T20:31:21.490Z,93.31
2017-09-14T20:33:49.847Z,93.12
2017-09-14T20:36:18.195Z,93.26
2017-09-14T20:38:46.534Z,93.14
2017-09-14T20:41:14.903Z,93.58
2017-09-14T20:43:43.259Z,93.50
2017-09-14T20:46:11.618Z,93.16
2017-09-14T20:48:39.951Z,93.34
2017-09-14T20:51:08.307Z,93.58
2017-09-14T20:53:36.653Z,93.28
2017-09-14T20:56:05.066Z,93.34
2017-09-14T20:58:33.574Z,93.43
2017-09-14T21:01:01.898Z,93.63
2017-09-14T21:03:30.254Z,93.90
2017-09-14T21:05:58.618Z,93.10
2017-09-14T21:08:26.957Z,93.17
2017-09-14T21:10:55.287Z,93.40
2017-09-14T21:13:23.870Z,93.54
2017-09-14T21:15:53.106Z,94.10
2017-09-14T21:18:21.449Z,94.04
2017-09-14T21:20:49.766Z,93.94
2017-09-14T21:23:18.095Z,94.19
2017-09-14T21:25:46.542Z,93.70
2017-09-14T21:28:14.869Z,93.56
2017-09-14T21:30:43.194Z,93.67
2017-09-14T21:33:11.528Z,93.63
2017-09-14T21:35:39.890Z,93.69
2017-09-14T21:38:08.224Z,93.71
2017-09-14T21:40:36.820Z,93.35
2017-09-14T21:43:05.237Z,93.53
2017-09-14T21:45:33.566Z,93.59
2017-09-14T21:48:02.418Z,92.74
2017-09-14T21:50:30.746Z,92.98
2017-09-14T21:52:59.090Z,93.80
2017-09-14T21:55:27.418Z,93.89
2017-09-14T21:57:55.762Z,93.24
2017-09-14T22:00:24.120Z,93.31
2017-09-14T22:02:52.446Z,93.40
2017-09-14T22:05:20.782Z,93.69
2017-09-14T22:07:49.114Z,92.69
2017-09-14T22:10:17.475Z,92.04
2017-09-14T22:12:45.811Z,92.74
2017-09-14T22:15:14.143Z,92.79
2017-09-14T22:17:42.473Z,92.20
2017-09-14T22:20:10.795Z,92.47
2017-09-14T22:22:39.150Z,92.32
2017-09-14T22:25:07.574Z,92.93
2017-09-14T22:27:35.923Z,92.83
2017-09-14T22:30:04.319Z,93.13
2017-09-14T22:32:32.746Z,92.84
2017-09-14T22:35:01.089Z,92.88
2017-09-14T22:37:29.435Z,93.42
2017-09-14T22:39:57.849Z,93.27
2017-09-14T22:42:26.614Z,93.09
2017-09-14T22:44:55.005Z,93.06
2017-09-14T22:47:23.353Z,93.04
2017-09-14T22:49:51.682Z,93.10
2017-09-14T22:52:20.038Z,93.18
2017-09-14T22:54:48.483Z,93.32
2017-09-14T22:57:16.832Z,92.37
2017-09-14T22:59:45.190Z,92.62
2017-09-14T23:02:13.514Z,92.59
2017-09-14T23:04:41.956Z,92.57
2017-09-14T23:07:10.431Z,92.96
2017-09-14T23:09:38.758Z,92.95
2017-09-14T23:12:07.127Z,93.26
2017-09-14T23:14:35.452Z,93.32
2017-09-14T23:17:03.886Z,93.07
2017-09-14T23:19:32.218Z,93.46
2017-09-14T23:22:00.578Z,93.40
2017-09-14T23:24:28.950Z,93.10
2017-09-14T23:26:57.343Z,93.59
2017-09-14T23:29:25.714Z,93.90
2017-09-14T23:31:54.126Z,93.48
2017-09-14T23:34:22.534Z,93.71
2017-09-14T23:36:50.898Z,93.54
2017-09-14T23:39:19.241Z,93.07
2017-09-14T23:41:47.718Z,92.95
2017-09-14T23:44:16.195Z,93.49
2017-09-14T23:46:44.546Z,93.37
2017-09-14T23:49:12.878Z,93.42
2017-09-14T23:51:41.270Z,93.40
2017-09-14T23:54:09.650Z,93.42
2017-09-14T23:56:38.032Z,93.66
2017-09-14T23:59:06.374Z,93.65
